YVR weather

Vancouver International Airport
Vancouver, British Columbia, Canada

Public forecast

Using degrees Celsius for public forecast. Weather courtesy of forecast.io.

METAR (pilot weather report)

Retrieved 2018/08/16 04:00 UTC (1 hour ago):

CYVR 160400Z 31002KT 8SM FEW150 BKN230 18/17 A2987 RMK FU2CS3 HZ SLP115 DENSITY ALT 500FT

TAF (pilot weather forecast)

Retrieved 2018/08/16 03:42 UTC (1 hour ago):

TAF CYVR 160238Z 1603/1706 VRB03KT P6SM SCT220 FM161500 12008KT P6SM FEW220 BECMG 1618/1620 17008KT BECMG 1700/1702 23006KT RMK NXT FCST BY 160600Z